Cedar Creek, TX (78612)

10:15 AM CDT on March 26, 2017 (GMT -0500)
Wyldwood | | Change Station

Elev 525 ft 30.12 °N, 97.48 °W | Updated 4 minutes ago

Mostly Cloudy
Mostly Cloudy
73.1 °F
Feels Like 73 °F
N
2.0
Wind Variable Wind from SSE
Gusts 8.0 mph

Today
High -- | Low -- °F
--% Chance of Precip.
Yesterday
High -- | Low -- °F
Precip. -- in
Pressure 29.87 in
Visibility 7.0 miles
Clouds Few 1200 ft
Mostly Cloudy 1700 ft
Heat Index 73 °F
Dew Point 67 °F
Humidity 80%
Rainfall 0.00 in
Snow Depth Not available.
7:26 AM 7:45 PM
Waning Crescent, 3% visible
METAR KAUS 261453Z 16013KT 7SM FEW012 BKN017 22/18 A2988 RMK AO2 SLP113 T02170178 50007
Pressure 29.87 in
Visibility 7.0 miles
Clouds Few 1200 ft
Mostly Cloudy 1700 ft
Heat Index 73 °F
Dew Point 67 °F
Humidity 80%
Rainfall 0.00 in
Snow Depth Not available.
7:26 AM 7:45 PM
Waning Crescent, 3% visible
METAR KAUS 261453Z 16013KT 7SM FEW012 BKN017 22/18 A2988 RMK AO2 SLP113 T02170178 50007

Get Severe Weather Alerts

Thanks for signing up!

Be on the lookout for a verification email in your inbox.

You'll start receiving the daily forecast at 8 AM.

×

10-Day Weather Forecast

Almanac

Astronomy

Mar. 26, 2017 Rise Set
Actual Time
Civil Twilight
Nautical Twilight
Astronomical Twilight
Moon
Length of Visible Light
Length of Day
Tomorrow will be .
, % of the Moon is Illuminated

Today's Extremes

State Highs State Lows

Community

WunderPhotos

Upload Photos

1,962,540 photos uploaded!

WunderBlog® & News

Nearby

Air Quality

  Air Quality AQ Index Pollutant
Not available.

Snow Depth

Station Depth Elevation

Earthquake Activity

City Distance Mag. Time & Date
Minimum magnitude displayed is 2.5.

Earthquake Activity

City Distance Mag. Time & Date
Minimum magnitude displayed is 2.5.

Coastal Water Temperatures

Place Temperature

Stations

Nearby Weather Stations

Station Location Temp. Windchill Dew Point Humidity Wind Precip. Elev Updated Type
                   

Watches & Warnings

There are currently no watches in effect.